createdAt,value
2022-07-27T00:04:34.685Z,17.02
2022-07-27T00:09:35.730Z,16.99
2022-07-27T00:14:36.790Z,17.04
2022-07-27T00:19:38.067Z,16.78
2022-07-27T00:24:38.912Z,16.74
2022-07-27T00:29:41.025Z,16.72
2022-07-27T00:34:42.151Z,16.42
2022-07-27T00:39:43.056Z,16.35
2022-07-27T00:44:43.891Z,16.25
2022-07-27T00:49:45.004Z,16.24
2022-07-27T00:54:47.224Z,16.24
2022-07-27T00:59:48.348Z,16.13
2022-07-27T01:04:49.428Z,16.35
2022-07-27T01:09:57.367Z,16.30
2022-07-27T01:15:00.527Z,16.16
2022-07-27T01:20:01.415Z,15.97
2022-07-27T01:25:03.452Z,16.00
2022-07-27T01:30:25.648Z,16.21
2022-07-27T01:35:27.060Z,16.19
2022-07-27T01:40:28.363Z,16.12
2022-07-27T01:45:29.224Z,15.98
2022-07-27T01:50:30.498Z,16.13
2022-07-27T01:55:38.677Z,16.16
2022-07-27T02:00:41.103Z,16.26
2022-07-27T02:05:42.164Z,16.26
2022-07-27T02:12:04.698Z,16.19
2022-07-27T02:17:05.536Z,16.19
2022-07-27T02:22:07.702Z,16.06
2022-07-27T02:27:08.543Z,16.13
2022-07-27T02:32:09.849Z,16.15
2022-07-27T02:37:11.005Z,16.14
2022-07-27T02:42:11.870Z,16.11
2022-07-27T02:47:14.777Z,15.95
2022-07-27T02:52:15.767Z,15.81
2022-07-27T02:57:16.809Z,15.78
2022-07-27T03:02:17.862Z,15.79
2022-07-27T03:07:18.721Z,15.67
2022-07-27T03:12:19.616Z,15.63
2022-07-27T03:17:20.499Z,15.66
2022-07-27T03:22:21.338Z,15.68
2022-07-27T03:27:22.178Z,15.90
2022-07-27T03:32:23.929Z,15.89
2022-07-27T03:37:24.955Z,15.73
2022-07-27T03:42:25.890Z,15.72
2022-07-27T03:47:26.793Z,15.62
2022-07-27T03:52:27.878Z,15.48
2022-07-27T03:57:28.729Z,15.50
2022-07-27T04:02:29.755Z,15.45
2022-07-27T04:07:30.666Z,15.43
2022-07-27T04:12:31.936Z,15.41
2022-07-27T04:17:53.336Z,15.49
2022-07-27T04:22:57.589Z,15.49
2022-07-27T04:27:58.613Z,15.39
2022-07-27T04:32:59.651Z,15.25
2022-07-27T04:38:00.497Z,15.11
2022-07-27T04:43:03.558Z,15.15
2022-07-27T04:48:06.229Z,15.17
2022-07-27T04:53:08.077Z,15.16
2022-07-27T04:58:09.521Z,15.28
2022-07-27T05:03:10.673Z,15.25
2022-07-27T05:08:11.480Z,15.09
2022-07-27T05:13:12.358Z,14.97
2022-07-27T05:18:13.349Z,15.01
2022-07-27T05:23:15.067Z,15.27
2022-07-27T05:28:15.924Z,15.24
2022-07-27T05:33:17.028Z,15.25
2022-07-27T05:38:17.926Z,15.22
2022-07-27T05:43:18.813Z,15.11
2022-07-27T05:48:19.803Z,15.27
2022-07-27T05:53:20.974Z,15.35
2022-07-27T05:58:23.172Z,15.42
2022-07-27T06:03:26.458Z,15.51
2022-07-27T06:08:27.410Z,15.61
2022-07-27T06:13:28.559Z,15.64
2022-07-27T06:18:29.632Z,16.15
2022-07-27T06:23:30.813Z,16.74
2022-07-27T06:28:31.907Z,16.78
2022-07-27T06:33:33.806Z,17.13
2022-07-27T06:38:36.940Z,16.97
2022-07-27T06:43:38.404Z,16.80
2022-07-27T06:48:40.155Z,16.99
2022-07-27T06:53:41.210Z,17.32
2022-07-27T06:58:42.125Z,17.52
2022-07-27T07:03:43.501Z,17.78
2022-07-27T07:08:44.368Z,17.70
2022-07-27T07:13:45.337Z,18.04
2022-07-27T07:18:51.768Z,18.08
2022-07-27T07:23:53.425Z,17.96
2022-07-27T07:28:54.739Z,18.21
2022-07-27T07:33:57.379Z,18.09
2022-07-27T07:38:59.230Z,18.51
2022-07-27T07:44:00.101Z,18.85
2022-07-27T07:49:01.829Z,18.95
2022-07-27T07:54:02.957Z,18.89
2022-07-27T07:59:04.252Z,18.96
2022-07-27T08:04:05.537Z,19.15
2022-07-27T08:09:06.826Z,19.15
2022-07-27T08:14:07.792Z,19.69
2022-07-27T08:19:09.634Z,19.65
2022-07-27T08:24:10.741Z,19.23
2022-07-27T08:29:14.329Z,19.14
2022-07-27T08:34:15.950Z,19.33
2022-07-27T08:39:52.649Z,19.33
2022-07-27T08:45:08.988Z,19.61
2022-07-27T08:50:24.896Z,19.38
2022-07-27T08:55:29.396Z,19.86
2022-07-27T09:00:32.486Z,19.95
2022-07-27T09:05:41.639Z,20.08
2022-07-27T09:10:43.372Z,19.99
2022-07-27T09:16:19.222Z,20.13
2022-07-27T09:21:23.661Z,20.20
2022-07-27T09:26:34.671Z,20.10
2022-07-27T09:31:42.089Z,20.35
2022-07-27T09:36:55.676Z,20.56
2022-07-27T09:42:01.057Z,20.84
2022-07-27T09:47:21.831Z,21.12
2022-07-27T09:52:28.260Z,21.29
2022-07-27T09:57:29.281Z,21.47
2022-07-27T10:02:30.623Z,21.52
2022-07-27T10:07:32.028Z,21.74
2022-07-27T10:12:33.005Z,22.29
2022-07-27T10:17:36.011Z,22.63
2022-07-27T10:22:54.546Z,21.99
2022-07-27T10:28:16.836Z,21.74
2022-07-27T10:33:42.965Z,21.99
2022-07-27T10:38:46.785Z,22.46
2022-07-27T10:43:49.795Z,22.98
2022-07-27T10:48:50.727Z,23.37
2022-07-27T11:02:55.583Z,23.43
2022-07-27T11:08:35.301Z,23.75
2022-07-27T11:13:38.961Z,23.15
2022-07-27T11:18:53.059Z,23.82
2022-07-27T11:24:18.096Z,24.54
2022-07-27T11:29:21.922Z,24.11
2022-07-27T11:34:36.115Z,23.44
2022-07-27T11:39:59.952Z,22.96
2022-07-27T11:45:01.965Z,23.56
2022-07-27T11:50:10.396Z,23.82
2022-07-27T11:55:12.954Z,23.64
2022-07-27T12:00:15.377Z,22.81
2022-07-27T12:05:17.195Z,23.47
2022-07-27T12:10:18.224Z,24.49
2022-07-27T12:15:45.941Z,24.04
2022-07-27T12:20:48.018Z,23.53
2022-07-27T12:25:48.916Z,23.60
2022-07-27T12:30:51.823Z,23.22
2022-07-27T12:35:53.000Z,22.98
2022-07-27T12:41:00.217Z,22.85
2022-07-27T12:46:13.504Z,23.17
2022-07-27T12:51:23.105Z,23.41
2022-07-27T12:56:27.017Z,22.60
2022-07-27T13:01:28.874Z,23.33
2022-07-27T13:06:30.300Z,23.33
2022-07-27T13:11:31.457Z,22.47
2022-07-27T13:16:32.702Z,21.93
2022-07-27T13:21:33.635Z,22.72
2022-07-27T13:26:34.618Z,22.42
2022-07-27T13:31:36.322Z,23.16
2022-07-27T13:36:39.946Z,22.98
2022-07-27T13:41:41.178Z,23.28
2022-07-27T13:46:42.318Z,23.61
2022-07-27T13:51:44.696Z,24.12
2022-07-27T13:56:45.626Z,23.06
2022-07-27T14:01:46.702Z,22.98
2022-07-27T14:06:48.363Z,22.47
2022-07-27T14:11:50.911Z,22.58
2022-07-27T14:16:54.351Z,22.61
2022-07-27T14:21:55.286Z,22.49
2022-07-27T14:26:56.950Z,22.92
2022-07-27T14:31:57.845Z,22.73
2022-07-27T14:36:58.829Z,22.63
2022-07-27T14:42:01.563Z,22.33
2022-07-27T14:47:03.177Z,21.67
2022-07-27T14:52:07.723Z,22.09
2022-07-27T14:57:08.887Z,22.52
2022-07-27T15:02:10.444Z,22.34
2022-07-27T15:07:11.433Z,22.69
2022-07-27T15:12:12.293Z,22.75
2022-07-27T15:17:13.641Z,23.27
2022-07-27T15:22:15.254Z,23.41
2022-07-27T15:27:16.152Z,23.13
2022-07-27T15:32:17.227Z,22.89
2022-07-27T15:37:18.136Z,23.05
2022-07-27T15:42:20.612Z,22.92
2022-07-27T15:47:21.891Z,22.70
2022-07-27T15:52:22.799Z,22.31
2022-07-27T15:57:23.733Z,22.48
2022-07-27T16:02:25.837Z,22.48
2022-07-27T16:07:27.254Z,22.19
2022-07-27T16:12:41.718Z,22.23
2022-07-27T16:17:42.782Z,22.15
2022-07-27T16:22:43.960Z,21.84
2022-07-27T16:27:44.862Z,21.80
2022-07-27T16:32:45.833Z,21.69
2022-07-27T16:37:46.691Z,21.61
2022-07-27T16:42:47.573Z,21.64
2022-07-27T16:47:48.517Z,21.82
2022-07-27T16:52:49.674Z,21.55
2022-07-27T16:57:50.671Z,21.25
2022-07-27T17:02:51.606Z,21.16
2022-07-27T17:07:53.497Z,21.19
2022-07-27T17:12:55.728Z,21.24
2022-07-27T17:17:59.389Z,21.00
2022-07-27T17:23:02.994Z,20.78
2022-07-27T17:28:04.196Z,20.80
2022-07-27T17:33:05.132Z,20.62
2022-07-27T17:38:07.538Z,20.46
2022-07-27T17:43:08.548Z,20.48
2022-07-27T17:48:09.482Z,20.23
2022-07-27T17:53:11.061Z,20.35
2022-07-27T17:58:12.177Z,20.35
2022-07-27T18:03:16.822Z,20.36
2022-07-27T18:08:18.478Z,20.20
2022-07-27T18:13:19.516Z,20.07
2022-07-27T18:18:24.023Z,19.94
2022-07-27T18:23:30.055Z,19.71
2022-07-27T18:28:38.753Z,19.51
2022-07-27T18:33:45.025Z,19.46
2022-07-27T18:38:48.630Z,19.19
2022-07-27T18:43:52.310Z,19.04
2022-07-27T18:48:54.304Z,18.83
2022-07-27T18:53:55.388Z,18.83
2022-07-27T18:58:56.555Z,18.50
2022-07-27T19:03:57.584Z,18.48
2022-07-27T19:08:58.532Z,18.37
2022-07-27T19:13:59.387Z,18.18
2022-07-27T19:19:01.713Z,18.18
2022-07-27T19:24:03.674Z,17.94
2022-07-27T19:29:04.546Z,17.69
2022-07-27T19:34:05.435Z,17.64
2022-07-27T19:39:08.093Z,17.57
2022-07-27T19:44:09.273Z,17.39
2022-07-27T19:49:10.756Z,17.36
2022-07-27T19:54:12.889Z,17.33
2022-07-27T19:59:15.389Z,17.22
2022-07-27T20:04:16.680Z,17.36
2022-07-27T20:09:17.552Z,17.22
2022-07-27T20:14:18.466Z,17.21
2022-07-27T20:19:19.399Z,17.11
2022-07-27T20:24:20.538Z,17.08
2022-07-27T20:29:22.551Z,17.10
2022-07-27T20:34:24.406Z,17.00
2022-07-27T20:39:26.040Z,17.00
2022-07-27T20:44:27.155Z,16.87
2022-07-27T20:49:28.584Z,16.78
2022-07-27T20:54:29.931Z,16.79
2022-07-27T20:59:32.959Z,16.63
2022-07-27T21:04:33.900Z,16.62
2022-07-27T21:09:34.762Z,16.61
2022-07-27T21:14:35.641Z,16.54
2022-07-27T21:19:37.712Z,16.59
2022-07-27T21:24:38.713Z,16.49
2022-07-27T21:29:39.971Z,16.43
2022-07-27T21:34:41.117Z,16.24
2022-07-27T21:39:44.916Z,16.25
2022-07-27T21:44:46.041Z,16.14
2022-07-27T21:49:47.052Z,16.08
2022-07-27T21:54:47.892Z,16.09
2022-07-27T21:59:48.905Z,15.88
2022-07-27T22:04:49.835Z,15.78
2022-07-27T22:09:50.781Z,15.80
2022-07-27T22:14:52.376Z,15.87
2022-07-27T22:19:53.554Z,15.74
2022-07-27T22:24:54.510Z,15.76
2022-07-27T22:29:56.744Z,15.65
2022-07-27T22:34:57.764Z,15.79
2022-07-27T22:39:58.675Z,15.65
2022-07-27T22:44:59.638Z,15.61
2022-07-27T22:50:01.206Z,15.51
2022-07-27T22:55:02.294Z,15.42
2022-07-27T23:00:05.551Z,15.50
2022-07-27T23:05:06.900Z,15.39
2022-07-27T23:10:44.889Z,15.42
2022-07-27T23:15:46.538Z,15.33
2022-07-27T23:20:47.527Z,15.05
2022-07-27T23:25:48.821Z,15.06
2022-07-27T23:30:50.780Z,14.96
2022-07-27T23:35:51.668Z,14.95
2022-07-27T23:40:52.635Z,15.01
2022-07-27T23:45:53.511Z,15.13
2022-07-27T23:50:54.789Z,15.15
2022-07-27T23:55:55.988Z,15.10
